sensor_id;sensor_type;location;lat;lon;timestamp;temperature;humidity
33580;DHT22;19909;43.644;-79.438;2023-12-28T00:00:53;23.60;38.20
33580;DHT22;19909;43.644;-79.438;2023-12-28T00:03:19;23.60;38.20
33580;DHT22;19909;43.644;-79.438;2023-12-28T00:05:46;23.60;38.40
33580;DHT22;19909;43.644;-79.438;2023-12-28T00:08:13;23.50;38.30
33580;DHT22;19909;43.644;-79.438;2023-12-28T00:10:39;23.40;38.30
33580;DHT22;19909;43.644;-79.438;2023-12-28T00:13:05;23.40;38.50
33580;DHT22;19909;43.644;-79.438;2023-12-28T00:15:32;23.30;38.50
33580;DHT22;19909;43.644;-79.438;2023-12-28T00:17:58;23.30;38.60
33580;DHT22;19909;43.644;-79.438;2023-12-28T00:20:25;23.30;38.60
33580;DHT22;19909;43.644;-79.438;2023-12-28T00:22:52;23.20;38.70
33580;DHT22;19909;43.644;-79.438;2023-12-28T00:25:18;23.20;38.70
33580;DHT22;19909;43.644;-79.438;2023-12-28T00:27:44;23.10;38.70
33580;DHT22;19909;43.644;-79.438;2023-12-28T00:30:12;23.10;38.80
33580;DHT22;19909;43.644;-79.438;2023-12-28T00:32:39;23.10;38.90
33580;DHT22;19909;43.644;-79.438;2023-12-28T00:35:10;23.00;39.40
33580;DHT22;19909;43.644;-79.438;2023-12-28T00:37:36;23.10;38.80
33580;DHT22;19909;43.644;-79.438;2023-12-28T00:40:04;23.10;38.70
33580;DHT22;19909;43.644;-79.438;2023-12-28T00:42:31;23.20;38.70
33580;DHT22;19909;43.644;-79.438;2023-12-28T00:44:57;23.30;38.50
33580;DHT22;19909;43.644;-79.438;2023-12-28T00:47:25;23.40;38.50
33580;DHT22;19909;43.644;-79.438;2023-12-28T00:49:52;23.50;38.20
33580;DHT22;19909;43.644;-79.438;2023-12-28T00:52:19;23.60;38.10
33580;DHT22;19909;43.644;-79.438;2023-12-28T00:54:46;23.60;38.20
33580;DHT22;19909;43.644;-79.438;2023-12-28T00:57:12;23.50;38.20
33580;DHT22;19909;43.644;-79.438;2023-12-28T00:59:38;23.50;38.20
33580;DHT22;19909;43.644;-79.438;2023-12-28T01:02:04;23.50;38.30
33580;DHT22;19909;43.644;-79.438;2023-12-28T01:04:30;23.40;38.30
33580;DHT22;19909;43.644;-79.438;2023-12-28T01:06:56;23.40;38.50
33580;DHT22;19909;43.644;-79.438;2023-12-28T01:09:24;23.30;38.50
33580;DHT22;19909;43.644;-79.438;2023-12-28T01:11:50;23.30;38.60
33580;DHT22;19909;43.644;-79.438;2023-12-28T01:14:17;23.20;38.60
33580;DHT22;19909;43.644;-79.438;2023-12-28T01:16:43;23.10;38.60
33580;DHT22;19909;43.644;-79.438;2023-12-28T01:19:10;23.10;38.70
33580;DHT22;19909;43.644;-79.438;2023-12-28T01:21:36;23.10;38.70
33580;DHT22;19909;43.644;-79.438;2023-12-28T01:24:02;23.00;38.80
33580;DHT22;19909;43.644;-79.438;2023-12-28T01:26:29;23.00;38.90
33580;DHT22;19909;43.644;-79.438;2023-12-28T01:28:55;22.90;38.80
33580;DHT22;19909;43.644;-79.438;2023-12-28T01:31:22;23.00;38.80
33580;DHT22;19909;43.644;-79.438;2023-12-28T01:33:48;23.10;38.80
33580;DHT22;19909;43.644;-79.438;2023-12-28T01:36:23;23.10;38.60
33580;DHT22;19909;43.644;-79.438;2023-12-28T01:38:49;23.20;38.60
33580;DHT22;19909;43.644;-79.438;2023-12-28T01:41:16;23.30;38.40
33580;DHT22;19909;43.644;-79.438;2023-12-28T01:43:42;23.50;38.30
33580;DHT22;19909;43.644;-79.438;2023-12-28T01:46:15;23.60;38.10
33580;DHT22;19909;43.644;-79.438;2023-12-28T01:48:45;23.60;38.10
33580;DHT22;19909;43.644;-79.438;2023-12-28T01:51:13;23.60;38.20
33580;DHT22;19909;43.644;-79.438;2023-12-28T01:53:43;23.60;38.20
33580;DHT22;19909;43.644;-79.438;2023-12-28T01:56:11;23.50;38.20
33580;DHT22;19909;43.644;-79.438;2023-12-28T01:58:40;23.50;38.30
33580;DHT22;19909;43.644;-79.438;2023-12-28T02:01:07;23.40;38.30
33580;DHT22;19909;43.644;-79.438;2023-12-28T02:03:34;23.40;38.40
33580;DHT22;19909;43.644;-79.438;2023-12-28T02:06:01;23.30;38.50
33580;DHT22;19909;43.644;-79.438;2023-12-28T02:08:27;23.20;38.40
33580;DHT22;19909;43.644;-79.438;2023-12-28T02:10:53;23.20;38.40
33580;DHT22;19909;43.644;-79.438;2023-12-28T02:13:21;23.20;38.50
33580;DHT22;19909;43.644;-79.438;2023-12-28T02:15:54;23.10;38.60
33580;DHT22;19909;43.644;-79.438;2023-12-28T02:18:23;23.10;38.60
33580;DHT22;19909;43.644;-79.438;2023-12-28T02:20:51;23.10;38.70
33580;DHT22;19909;43.644;-79.438;2023-12-28T02:23:17;23.00;38.80
33580;DHT22;19909;43.644;-79.438;2023-12-28T02:25:43;23.00;38.70
33580;DHT22;19909;43.644;-79.438;2023-12-28T02:28:10;23.00;38.60
33580;DHT22;19909;43.644;-79.438;2023-12-28T02:30:36;23.10;38.60
33580;DHT22;19909;43.644;-79.438;2023-12-28T02:33:12;23.20;38.60
33580;DHT22;19909;43.644;-79.438;2023-12-28T02:35:45;23.30;38.50
33580;DHT22;19909;43.644;-79.438;2023-12-28T02:38:14;23.40;38.30
33580;DHT22;19909;43.644;-79.438;2023-12-28T02:40:43;23.50;38.10
33580;DHT22;19909;43.644;-79.438;2023-12-28T02:43:11;23.50;38.00
33580;DHT22;19909;43.644;-79.438;2023-12-28T02:45:38;23.50;38.00
33580;DHT22;19909;43.644;-79.438;2023-12-28T02:48:05;23.50;38.00
33580;DHT22;19909;43.644;-79.438;2023-12-28T02:50:33;23.50;38.10
33580;DHT22;19909;43.644;-79.438;2023-12-28T02:53:01;23.40;38.20
33580;DHT22;19909;43.644;-79.438;2023-12-28T02:55:28;23.40;38.20
33580;DHT22;19909;43.644;-79.438;2023-12-28T02:57:56;23.30;38.30
33580;DHT22;19909;43.644;-79.438;2023-12-28T03:00:26;23.30;38.30
33580;DHT22;19909;43.644;-79.438;2023-12-28T03:02:52;23.20;38.40
33580;DHT22;19909;43.644;-79.438;2023-12-28T03:05:20;23.20;38.50
33580;DHT22;19909;43.644;-79.438;2023-12-28T03:07:47;23.10;38.50
33580;DHT22;19909;43.644;-79.438;2023-12-28T03:10:14;23.10;38.60
33580;DHT22;19909;43.644;-79.438;2023-12-28T03:12:40;23.10;38.60
33580;DHT22;19909;43.644;-79.438;2023-12-28T03:15:07;23.00;38.60
33580;DHT22;19909;43.644;-79.438;2023-12-28T03:17:33;23.00;38.60
33580;DHT22;19909;43.644;-79.438;2023-12-28T03:20:00;23.10;38.60
33580;DHT22;19909;43.644;-79.438;2023-12-28T03:22:27;23.10;38.50
33580;DHT22;19909;43.644;-79.438;2023-12-28T03:24:54;23.20;38.40
33580;DHT22;19909;43.644;-79.438;2023-12-28T03:27:21;23.40;38.40
33580;DHT22;19909;43.644;-79.438;2023-12-28T03:29:47;23.50;38.20
33580;DHT22;19909;43.644;-79.438;2023-12-28T03:32:14;23.60;38.00
33580;DHT22;19909;43.644;-79.438;2023-12-28T03:34:41;23.60;38.00
33580;DHT22;19909;43.644;-79.438;2023-12-28T03:37:07;23.60;38.00
33580;DHT22;19909;43.644;-79.438;2023-12-28T03:39:35;23.60;38.00
33580;DHT22;19909;43.644;-79.438;2023-12-28T03:42:01;23.50;38.10
33580;DHT22;19909;43.644;-79.438;2023-12-28T03:44:27;23.50;38.10
33580;DHT22;19909;43.644;-79.438;2023-12-28T03:46:54;23.40;38.20
33580;DHT22;19909;43.644;-79.438;2023-12-28T03:49:20;23.40;38.30
33580;DHT22;19909;43.644;-79.438;2023-12-28T03:51:49;23.30;38.30
33580;DHT22;19909;43.644;-79.438;2023-12-28T03:54:17;23.20;38.40
33580;DHT22;19909;43.644;-79.438;2023-12-28T03:56:43;23.20;38.50
33580;DHT22;19909;43.644;-79.438;2023-12-28T03:59:10;23.20;38.60
33580;DHT22;19909;43.644;-79.438;2023-12-28T04:01:37;23.10;38.50
33580;DHT22;19909;43.644;-79.438;2023-12-28T04:04:04;23.10;38.60
33580;DHT22;19909;43.644;-79.438;2023-12-28T04:06:30;23.00;38.70
33580;DHT22;19909;43.644;-79.438;2023-12-28T04:08:56;23.00;38.70
33580;DHT22;19909;43.644;-79.438;2023-12-28T04:11:23;23.00;38.70
33580;DHT22;19909;43.644;-79.438;2023-12-28T04:13:50;22.90;38.60
33580;DHT22;19909;43.644;-79.438;2023-12-28T04:16:16;23.00;38.60
33580;DHT22;19909;43.644;-79.438;2023-12-28T04:18:43;23.10;38.50
33580;DHT22;19909;43.644;-79.438;2023-12-28T04:21:11;23.20;38.40
33580;DHT22;19909;43.644;-79.438;2023-12-28T04:23:39;23.30;38.30
33580;DHT22;19909;43.644;-79.438;2023-12-28T04:26:06;23.40;38.50
33580;DHT22;19909;43.644;-79.438;2023-12-28T04:28:32;23.50;38.10
33580;DHT22;19909;43.644;-79.438;2023-12-28T04:31:05;23.50;38.00
33580;DHT22;19909;43.644;-79.438;2023-12-28T04:33:32;23.50;38.00
33580;DHT22;19909;43.644;-79.438;2023-12-28T04:36:05;23.50;38.10
33580;DHT22;19909;43.644;-79.438;2023-12-28T04:38:32;23.40;38.10
33580;DHT22;19909;43.644;-79.438;2023-12-28T04:41:02;23.40;38.10
33580;DHT22;19909;43.644;-79.438;2023-12-28T04:43:28;23.40;38.20
33580;DHT22;19909;43.644;-79.438;2023-12-28T04:45:54;23.30;38.30
33580;DHT22;19909;43.644;-79.438;2023-12-28T04:48:21;23.20;38.30
33580;DHT22;19909;43.644;-79.438;2023-12-28T04:50:50;23.20;39.00
33580;DHT22;19909;43.644;-79.438;2023-12-28T04:53:18;23.10;38.30
33580;DHT22;19909;43.644;-79.438;2023-12-28T04:55:44;23.10;38.30
33580;DHT22;19909;43.644;-79.438;2023-12-28T04:58:11;23.10;38.30
33580;DHT22;19909;43.644;-79.438;2023-12-28T05:00:41;23.20;38.30
33580;DHT22;19909;43.644;-79.438;2023-12-28T05:03:08;23.30;38.30
33580;DHT22;19909;43.644;-79.438;2023-12-28T05:05:35;23.40;38.20
33580;DHT22;19909;43.644;-79.438;2023-12-28T05:08:02;23.50;38.10
33580;DHT22;19909;43.644;-79.438;2023-12-28T05:10:29;23.60;38.00
33580;DHT22;19909;43.644;-79.438;2023-12-28T05:12:55;23.70;37.80
33580;DHT22;19909;43.644;-79.438;2023-12-28T05:15:22;23.70;37.90
33580;DHT22;19909;43.644;-79.438;2023-12-28T05:17:49;23.60;37.80
33580;DHT22;19909;43.644;-79.438;2023-12-28T05:20:16;23.60;37.90
33580;DHT22;19909;43.644;-79.438;2023-12-28T05:22:43;23.50;37.90
33580;DHT22;19909;43.644;-79.438;2023-12-28T05:25:09;23.50;38.00
33580;DHT22;19909;43.644;-79.438;2023-12-28T05:27:35;23.40;38.00
33580;DHT22;19909;43.644;-79.438;2023-12-28T05:30:02;23.30;38.10
33580;DHT22;19909;43.644;-79.438;2023-12-28T05:32:28;23.30;38.20
33580;DHT22;19909;43.644;-79.438;2023-12-28T05:34:54;23.30;38.20
33580;DHT22;19909;43.644;-79.438;2023-12-28T05:37:21;23.20;38.30
33580;DHT22;19909;43.644;-79.438;2023-12-28T05:39:47;23.20;38.40
33580;DHT22;19909;43.644;-79.438;2023-12-28T05:42:15;23.10;38.50
33580;DHT22;19909;43.644;-79.438;2023-12-28T05:44:42;23.10;38.50
33580;DHT22;19909;43.644;-79.438;2023-12-28T05:47:09;23.10;38.60
33580;DHT22;19909;43.644;-79.438;2023-12-28T05:49:37;23.10;38.60
33580;DHT22;19909;43.644;-79.438;2023-12-28T05:52:04;23.00;38.50
33580;DHT22;19909;43.644;-79.438;2023-12-28T05:54:30;23.00;38.50
33580;DHT22;19909;43.644;-79.438;2023-12-28T05:56:57;23.10;38.50
33580;DHT22;19909;43.644;-79.438;2023-12-28T05:59:25;23.10;38.30
33580;DHT22;19909;43.644;-79.438;2023-12-28T06:01:52;23.20;38.30
33580;DHT22;19909;43.644;-79.438;2023-12-28T06:04:18;23.30;38.20
33580;DHT22;19909;43.644;-79.438;2023-12-28T06:06:44;23.50;38.10
33580;DHT22;19909;43.644;-79.438;2023-12-28T06:09:11;23.60;37.90
33580;DHT22;19909;43.644;-79.438;2023-12-28T06:11:37;23.60;37.90
33580;DHT22;19909;43.644;-79.438;2023-12-28T06:14:04;23.60;37.90
33580;DHT22;19909;43.644;-79.438;2023-12-28T06:16:31;23.50;37.90
33580;DHT22;19909;43.644;-79.438;2023-12-28T06:18:59;23.50;38.00
33580;DHT22;19909;43.644;-79.438;2023-12-28T06:21:26;23.40;38.00
33580;DHT22;19909;43.644;-79.438;2023-12-28T06:23:52;23.40;38.10
33580;DHT22;19909;43.644;-79.438;2023-12-28T06:26:18;23.40;38.20
33580;DHT22;19909;43.644;-79.438;2023-12-28T06:28:44;23.30;38.20
33580;DHT22;19909;43.644;-79.438;2023-12-28T06:31:10;23.20;38.30
33580;DHT22;19909;43.644;-79.438;2023-12-28T06:33:37;23.20;38.30
33580;DHT22;19909;43.644;-79.438;2023-12-28T06:36:07;23.10;38.30
33580;DHT22;19909;43.644;-79.438;2023-12-28T06:38:34;23.10;38.40
33580;DHT22;19909;43.644;-79.438;2023-12-28T06:41:00;23.00;38.50
33580;DHT22;19909;43.644;-79.438;2023-12-28T06:43:27;23.00;38.60
33580;DHT22;19909;43.644;-79.438;2023-12-28T06:45:54;23.00;38.60
33580;DHT22;19909;43.644;-79.438;2023-12-28T06:48:20;22.90;38.60
33580;DHT22;19909;43.644;-79.438;2023-12-28T06:50:47;22.90;38.60
33580;DHT22;19909;43.644;-79.438;2023-12-28T06:53:13;22.90;38.50
33580;DHT22;19909;43.644;-79.438;2023-12-28T06:55:40;23.00;38.40
33580;DHT22;19909;43.644;-79.438;2023-12-28T06:58:06;23.10;38.40
33580;DHT22;19909;43.644;-79.438;2023-12-28T07:00:33;23.20;38.30
33580;DHT22;19909;43.644;-79.438;2023-12-28T07:03:00;23.30;38.20
33580;DHT22;19909;43.644;-79.438;2023-12-28T07:05:27;23.50;38.10
33580;DHT22;19909;43.644;-79.438;2023-12-28T07:07:54;23.50;37.90
33580;DHT22;19909;43.644;-79.438;2023-12-28T07:10:20;23.60;37.90
33580;DHT22;19909;43.644;-79.438;2023-12-28T07:12:47;23.50;37.90
33580;DHT22;19909;43.644;-79.438;2023-12-28T07:15:13;23.50;37.90
33580;DHT22;19909;43.644;-79.438;2023-12-28T07:17:40;23.50;38.00
33580;DHT22;19909;43.644;-79.438;2023-12-28T07:20:07;23.40;38.00
33580;DHT22;19909;43.644;-79.438;2023-12-28T07:22:36;23.40;38.10
33580;DHT22;19909;43.644;-79.438;2023-12-28T07:25:06;23.30;38.10
33580;DHT22;19909;43.644;-79.438;2023-12-28T07:27:34;23.30;38.30
33580;DHT22;19909;43.644;-79.438;2023-12-28T07:30:00;23.20;38.20
33580;DHT22;19909;43.644;-79.438;2023-12-28T07:32:28;23.20;38.30
33580;DHT22;19909;43.644;-79.438;2023-12-28T07:34:55;23.10;38.30
33580;DHT22;19909;43.644;-79.438;2023-12-28T07:37:22;23.10;38.50
33580;DHT22;19909;43.644;-79.438;2023-12-28T07:39:48;23.00;38.50
33580;DHT22;19909;43.644;-79.438;2023-12-28T07:42:15;23.00;38.50
33580;DHT22;19909;43.644;-79.438;2023-12-28T07:44:42;22.90;38.40
33580;DHT22;19909;43.644;-79.438;2023-12-28T07:47:08;23.00;38.40
33580;DHT22;19909;43.644;-79.438;2023-12-28T07:49:35;23.00;38.30
33580;DHT22;19909;43.644;-79.438;2023-12-28T07:52:01;23.10;38.30
33580;DHT22;19909;43.644;-79.438;2023-12-28T07:54:28;23.20;38.20
33580;DHT22;19909;43.644;-79.438;2023-12-28T07:56:54;23.30;38.20
33580;DHT22;19909;43.644;-79.438;2023-12-28T07:59:21;23.40;38.00
33580;DHT22;19909;43.644;-79.438;2023-12-28T08:01:47;23.50;37.90
33580;DHT22;19909;43.644;-79.438;2023-12-28T08:04:14;23.60;37.90
33580;DHT22;19909;43.644;-79.438;2023-12-28T08:06:40;23.50;37.90
33580;DHT22;19909;43.644;-79.438;2023-12-28T08:09:06;23.50;37.90
33580;DHT22;19909;43.644;-79.438;2023-12-28T08:11:32;23.50;37.90
33580;DHT22;19909;43.644;-79.438;2023-12-28T08:14:00;23.40;38.00
33580;DHT22;19909;43.644;-79.438;2023-12-28T08:16:27;23.40;38.00
33580;DHT22;19909;43.644;-79.438;2023-12-28T08:18:53;23.30;38.70
33580;DHT22;19909;43.644;-79.438;2023-12-28T08:21:19;23.20;38.10
33580;DHT22;19909;43.644;-79.438;2023-12-28T08:23:46;23.20;38.20
33580;DHT22;19909;43.644;-79.438;2023-12-28T08:26:12;23.20;38.30
33580;DHT22;19909;43.644;-79.438;2023-12-28T08:28:40;23.10;38.90
33580;DHT22;19909;43.644;-79.438;2023-12-28T08:31:08;23.10;38.40
33580;DHT22;19909;43.644;-79.438;2023-12-28T08:33:35;23.10;38.30
33580;DHT22;19909;43.644;-79.438;2023-12-28T08:36:05;23.10;38.90
33580;DHT22;19909;43.644;-79.438;2023-12-28T08:38:32;23.10;38.20
33580;DHT22;19909;43.644;-79.438;2023-12-28T08:40:59;23.20;38.20
33580;DHT22;19909;43.644;-79.438;2023-12-28T08:43:25;23.30;38.10
33580;DHT22;19909;43.644;-79.438;2023-12-28T08:45:53;23.40;38.10
33580;DHT22;19909;43.644;-79.438;2023-12-28T08:48:20;23.50;37.90
33580;DHT22;19909;43.644;-79.438;2023-12-28T08:50:47;23.60;37.80
33580;DHT22;19909;43.644;-79.438;2023-12-28T08:53:14;23.60;37.80
33580;DHT22;19909;43.644;-79.438;2023-12-28T08:55:41;23.60;37.80
33580;DHT22;19909;43.644;-79.438;2023-12-28T08:58:08;23.60;37.80
33580;DHT22;19909;43.644;-79.438;2023-12-28T09:00:34;23.50;37.80
33580;DHT22;19909;43.644;-79.438;2023-12-28T09:03:00;23.50;37.90
33580;DHT22;19909;43.644;-79.438;2023-12-28T09:05:26;23.40;38.00
33580;DHT22;19909;43.644;-79.438;2023-12-28T09:07:53;23.40;38.10
33580;DHT22;19909;43.644;-79.438;2023-12-28T09:10:19;23.30;38.10
33580;DHT22;19909;43.644;-79.438;2023-12-28T09:12:45;23.20;38.10
33580;DHT22;19909;43.644;-79.438;2023-12-28T09:15:12;23.20;38.20
33580;DHT22;19909;43.644;-79.438;2023-12-28T09:17:41;23.20;38.30
33580;DHT22;19909;43.644;-79.438;2023-12-28T09:20:09;23.10;38.30
33580;DHT22;19909;43.644;-79.438;2023-12-28T09:22:37;23.10;38.30
33580;DHT22;19909;43.644;-79.438;2023-12-28T09:25:05;23.00;38.70
33580;DHT22;19909;43.644;-79.438;2023-12-28T09:27:31;23.00;38.40
33580;DHT22;19909;43.644;-79.438;2023-12-28T09:29:57;23.00;38.30
33580;DHT22;19909;43.644;-79.438;2023-12-28T09:32:24;23.00;38.30
33580;DHT22;19909;43.644;-79.438;2023-12-28T09:34:53;23.10;38.30
33580;DHT22;19909;43.644;-79.438;2023-12-28T09:37:19;23.20;38.20
33580;DHT22;19909;43.644;-79.438;2023-12-28T09:39:45;23.20;38.10
33580;DHT22;19909;43.644;-79.438;2023-12-28T09:42:40;23.40;38.00
33580;DHT22;19909;43.644;-79.438;2023-12-28T09:45:06;23.50;37.90
33580;DHT22;19909;43.644;-79.438;2023-12-28T09:47:34;23.60;37.70
33580;DHT22;19909;43.644;-79.438;2023-12-28T09:50:00;23.70;37.70
33580;DHT22;19909;43.644;-79.438;2023-12-28T09:52:26;23.60;37.80
33580;DHT22;19909;43.644;-79.438;2023-12-28T09:54:52;23.50;37.80
33580;DHT22;19909;43.644;-79.438;2023-12-28T09:57:19;23.50;37.90
33580;DHT22;19909;43.644;-79.438;2023-12-28T09:59:46;23.50;37.90
33580;DHT22;19909;43.644;-79.438;2023-12-28T10:02:12;23.40;38.00
33580;DHT22;19909;43.644;-79.438;2023-12-28T10:04:38;23.30;38.00
33580;DHT22;19909;43.644;-79.438;2023-12-28T10:07:05;23.30;38.10
33580;DHT22;19909;43.644;-79.438;2023-12-28T10:09:31;23.30;38.20
33580;DHT22;19909;43.644;-79.438;2023-12-28T10:11:58;23.20;38.20
33580;DHT22;19909;43.644;-79.438;2023-12-28T10:14:25;23.10;38.20
33580;DHT22;19909;43.644;-79.438;2023-12-28T10:16:52;23.10;38.30
33580;DHT22;19909;43.644;-79.438;2023-12-28T10:19:23;23.10;38.40
33580;DHT22;19909;43.644;-79.438;2023-12-28T10:21:51;23.00;38.40
33580;DHT22;19909;43.644;-79.438;2023-12-28T10:24:17;23.00;38.30
33580;DHT22;19909;43.644;-79.438;2023-12-28T10:26:43;23.00;38.30
33580;DHT22;19909;43.644;-79.438;2023-12-28T10:29:10;23.10;38.30
33580;DHT22;19909;43.644;-79.438;2023-12-28T10:31:36;23.20;38.20
33580;DHT22;19909;43.644;-79.438;2023-12-28T10:34:02;23.30;38.10
33580;DHT22;19909;43.644;-79.438;2023-12-28T10:36:30;23.40;38.00
33580;DHT22;19909;43.644;-79.438;2023-12-28T10:39:00;23.40;38.00
33580;DHT22;19909;43.644;-79.438;2023-12-28T10:41:30;23.40;38.00
33580;DHT22;19909;43.644;-79.438;2023-12-28T10:44:03;23.30;38.00
33580;DHT22;19909;43.644;-79.438;2023-12-28T10:46:31;23.30;38.00
33580;DHT22;19909;43.644;-79.438;2023-12-28T10:49:00;23.30;38.20
33580;DHT22;19909;43.644;-79.438;2023-12-28T10:51:26;23.20;38.20
33580;DHT22;19909;43.644;-79.438;2023-12-28T10:56:48;23.10;38.30
33580;DHT22;19909;43.644;-79.438;2023-12-28T11:02:01;23.10;38.20
33580;DHT22;19909;43.644;-79.438;2023-12-28T11:04:49;23.10;38.20
33580;DHT22;19909;43.644;-79.438;2023-12-28T11:07:21;23.20;38.20
33580;DHT22;19909;43.644;-79.438;2023-12-28T11:09:48;23.30;38.10
33580;DHT22;19909;43.644;-79.438;2023-12-28T11:12:16;23.40;38.00
33580;DHT22;19909;43.644;-79.438;2023-12-28T11:14:47;23.50;37.80
33580;DHT22;19909;43.644;-79.438;2023-12-28T11:17:17;23.60;37.80
33580;DHT22;19909;43.644;-79.438;2023-12-28T11:19:45;23.60;37.70
33580;DHT22;19909;43.644;-79.438;2023-12-28T11:22:13;23.60;37.80
33580;DHT22;19909;43.644;-79.438;2023-12-28T11:24:42;23.60;37.80
33580;DHT22;19909;43.644;-79.438;2023-12-28T11:27:08;23.50;37.90
33580;DHT22;19909;43.644;-79.438;2023-12-28T11:29:34;23.50;37.90
33580;DHT22;19909;43.644;-79.438;2023-12-28T11:32:01;23.40;38.50
33580;DHT22;19909;43.644;-79.438;2023-12-28T11:34:32;23.40;38.00
33580;DHT22;19909;43.644;-79.438;2023-12-28T11:37:07;23.30;38.10
33580;DHT22;19909;43.644;-79.438;2023-12-28T11:39:36;23.20;38.10
33580;DHT22;19909;43.644;-79.438;2023-12-28T11:42:06;23.20;38.20
33580;DHT22;19909;43.644;-79.438;2023-12-28T11:44:43;23.20;38.30
33580;DHT22;19909;43.644;-79.438;2023-12-28T11:47:14;23.10;38.30
33580;DHT22;19909;43.644;-79.438;2023-12-28T11:49:42;23.10;38.40
33580;DHT22;19909;43.644;-79.438;2023-12-28T11:52:10;23.00;38.30
33580;DHT22;19909;43.644;-79.438;2023-12-28T11:54:47;23.00;38.30
33580;DHT22;19909;43.644;-79.438;2023-12-28T11:57:15;23.00;38.30
33580;DHT22;19909;43.644;-79.438;2023-12-28T11:59:43;23.10;38.30
33580;DHT22;19909;43.644;-79.438;2023-12-28T12:02:12;23.20;38.20
33580;DHT22;19909;43.644;-79.438;2023-12-28T12:04:39;23.20;38.10
33580;DHT22;19909;43.644;-79.438;2023-12-28T12:07:05;23.40;38.10
33580;DHT22;19909;43.644;-79.438;2023-12-28T12:09:32;23.40;37.90
33580;DHT22;19909;43.644;-79.438;2023-12-28T12:12:03;23.40;38.00
33580;DHT22;19909;43.644;-79.438;2023-12-28T12:14:31;23.40;38.00
33580;DHT22;19909;43.644;-79.438;2023-12-28T12:16:58;23.40;38.10
33580;DHT22;19909;43.644;-79.438;2023-12-28T12:19:27;23.30;38.00
33580;DHT22;19909;43.644;-79.438;2023-12-28T12:21:55;23.30;38.10
33580;DHT22;19909;43.644;-79.438;2023-12-28T12:24:22;23.20;38.10
33580;DHT22;19909;43.644;-79.438;2023-12-28T12:26:53;23.20;38.20
33580;DHT22;19909;43.644;-79.438;2023-12-28T12:29:20;23.10;38.30
33580;DHT22;19909;43.644;-79.438;2023-12-28T12:31:48;23.10;38.30
33580;DHT22;19909;43.644;-79.438;2023-12-28T12:34:18;23.10;38.40
33580;DHT22;19909;43.644;-79.438;2023-12-28T12:36:44;23.00;38.40
33580;DHT22;19909;43.644;-79.438;2023-12-28T12:39:11;23.00;38.30
33580;DHT22;19909;43.644;-79.438;2023-12-28T12:41:38;23.00;38.30
33580;DHT22;19909;43.644;-79.438;2023-12-28T12:44:05;23.00;38.30
33580;DHT22;19909;43.644;-79.438;2023-12-28T12:46:31;23.10;38.20
33580;DHT22;19909;43.644;-79.438;2023-12-28T12:48:58;23.20;38.10
33580;DHT22;19909;43.644;-79.438;2023-12-28T12:51:26;23.30;38.00
33580;DHT22;19909;43.644;-79.438;2023-12-28T12:54:00;23.50;37.90
33580;DHT22;19909;43.644;-79.438;2023-12-28T12:56:31;23.50;37.80
33580;DHT22;19909;43.644;-79.438;2023-12-28T12:58:58;23.60;37.80
33580;DHT22;19909;43.644;-79.438;2023-12-28T13:01:24;23.60;37.80
33580;DHT22;19909;43.644;-79.438;2023-12-28T13:03:51;23.50;37.80
33580;DHT22;19909;43.644;-79.438;2023-12-28T13:06:18;23.50;37.90
33580;DHT22;19909;43.644;-79.438;2023-12-28T13:08:48;23.40;37.90
33580;DHT22;19909;43.644;-79.438;2023-12-28T13:11:14;23.40;38.00
33580;DHT22;19909;43.644;-79.438;2023-12-28T13:13:42;23.30;38.00
33580;DHT22;19909;43.644;-79.438;2023-12-28T13:16:08;23.30;38.10
33580;DHT22;19909;43.644;-79.438;2023-12-28T13:18:35;23.20;38.00
33580;DHT22;19909;43.644;-79.438;2023-12-28T13:21:02;23.20;38.10
33580;DHT22;19909;43.644;-79.438;2023-12-28T13:23:30;23.20;38.10
33580;DHT22;19909;43.644;-79.438;2023-12-28T13:25:56;23.10;38.20
33580;DHT22;19909;43.644;-79.438;2023-12-28T13:28:22;23.10;38.20
33580;DHT22;19909;43.644;-79.438;2023-12-28T13:30:50;23.00;38.30
33580;DHT22;19909;43.644;-79.438;2023-12-28T13:33:17;23.00;38.30
33580;DHT22;19909;43.644;-79.438;2023-12-28T13:35:43;22.90;38.40
33580;DHT22;19909;43.644;-79.438;2023-12-28T13:38:10;22.90;38.40
33580;DHT22;19909;43.644;-79.438;2023-12-28T13:40:36;23.00;38.50
33580;DHT22;19909;43.644;-79.438;2023-12-28T13:43:03;23.10;38.40
33580;DHT22;19909;43.644;-79.438;2023-12-28T13:45:29;23.10;38.40
33580;DHT22;19909;43.644;-79.438;2023-12-28T13:47:56;23.30;38.30
33580;DHT22;19909;43.644;-79.438;2023-12-28T13:50:23;23.40;38.20
33580;DHT22;19909;43.644;-79.438;2023-12-28T13:52:50;23.50;38.00
33580;DHT22;19909;43.644;-79.438;2023-12-28T13:55:16;23.60;37.90
33580;DHT22;19909;43.644;-79.438;2023-12-28T13:57:42;23.60;37.90
33580;DHT22;19909;43.644;-79.438;2023-12-28T14:00:10;23.50;37.90
33580;DHT22;19909;43.644;-79.438;2023-12-28T14:02:37;23.50;38.00
33580;DHT22;19909;43.644;-79.438;2023-12-28T14:05:03;23.50;38.10
33580;DHT22;19909;43.644;-79.438;2023-12-28T14:07:30;23.40;38.10
33580;DHT22;19909;43.644;-79.438;2023-12-28T14:09:57;23.40;38.10
33580;DHT22;19909;43.644;-79.438;2023-12-28T14:12:23;23.30;38.20
33580;DHT22;19909;43.644;-79.438;2023-12-28T14:14:49;23.20;38.20
33580;DHT22;19909;43.644;-79.438;2023-12-28T14:17:17;23.20;38.30
33580;DHT22;19909;43.644;-79.438;2023-12-28T14:19:46;23.10;38.30
33580;DHT22;19909;43.644;-79.438;2023-12-28T14:22:13;23.10;38.30
33580;DHT22;19909;43.644;-79.438;2023-12-28T14:24:39;23.00;38.30
33580;DHT22;19909;43.644;-79.438;2023-12-28T14:27:06;23.00;38.40
33580;DHT22;19909;43.644;-79.438;2023-12-28T14:29:33;22.90;38.50
33580;DHT22;19909;43.644;-79.438;2023-12-28T14:31:59;22.90;38.50
33580;DHT22;19909;43.644;-79.438;2023-12-28T14:34:26;22.90;38.60
33580;DHT22;19909;43.644;-79.438;2023-12-28T14:36:53;22.80;38.60
33580;DHT22;19909;43.644;-79.438;2023-12-28T14:39:19;22.80;38.60
33580;DHT22;19909;43.644;-79.438;2023-12-28T14:41:46;22.80;38.60
33580;DHT22;19909;43.644;-79.438;2023-12-28T14:44:12;22.80;38.70
33580;DHT22;19909;43.644;-79.438;2023-12-28T14:46:39;22.70;38.60
33580;DHT22;19909;43.644;-79.438;2023-12-28T14:49:06;22.70;38.70
33580;DHT22;19909;43.644;-79.438;2023-12-28T14:51:32;22.70;38.60
33580;DHT22;19909;43.644;-79.438;2023-12-28T14:53:59;22.70;38.70
33580;DHT22;19909;43.644;-79.438;2023-12-28T14:56:25;22.80;38.60
33580;DHT22;19909;43.644;-79.438;2023-12-28T14:58:51;22.90;38.60
33580;DHT22;19909;43.644;-79.438;2023-12-28T15:01:18;23.10;38.60
33580;DHT22;19909;43.644;-79.438;2023-12-28T15:03:46;23.20;38.50
33580;DHT22;19909;43.644;-79.438;2023-12-28T15:06:12;23.30;38.30
33580;DHT22;19909;43.644;-79.438;2023-12-28T15:08:39;23.40;38.30